Time;durP1;ratioP1;P1;durP2;ratioP2;P2;SDS_P1;SDS_P2;PMS_P1;PMS_P2;Temp;Humidity;BMP_temperature;BMP_pressure;BME280_temperature;BME280_humidity;BME280_pressure;Samples;Min_cycle;Max_cycle;Signal;HPM_P1;HPM_P2
2021/04/29 00:00:54;;;;;;;1.02;0.63;;;;;;;19.11;28.60;100291.69;4176345;28;20088;-45
2021/04/29 00:02:54;;;;;;;1.63;0.80;;;;;;;19.05;28.62;100288.94;4174376;28;20032;-52
2021/04/29 00:04:55;;;;;;;1.00;0.90;;;;;;;19.00;28.70;100279.84;4176402;28;20515;-44
2021/04/29 00:06:55;;;;;;;0.80;0.75;;;;;;;19.10;28.69;100288.09;4175887;28;20144;-47
2021/04/29 00:08:56;;;;;;;0.90;0.90;;;;;;;19.12;28.71;100283.06;4175921;28;20024;-45
2021/04/29 00:10:56;;;;;;;0.95;0.85;;;;;;;19.04;28.84;100281.72;4175447;28;20530;-47
2021/04/29 00:12:57;;;;;;;0.70;0.70;;;;;;;19.07;28.74;100275.59;4176015;28;20044;-44
2021/04/29 00:14:58;;;;;;;0.60;0.60;;;;;;;18.97;28.66;100281.28;4176479;28;20032;-44
2021/04/29 00:16:59;;;;;;;0.88;0.88;;;;;;;18.99;28.72;100267.13;4175637;28;20033;-47
2021/04/29 00:18:59;;;;;;;0.73;0.68;;;;;;;19.03;28.70;100262.59;4176338;28;20043;-45
2021/04/29 00:21:00;;;;;;;1.08;0.63;;;;;;;18.91;28.87;100248.31;4175806;28;20029;-48
2021/04/29 00:23:01;;;;;;;0.68;0.60;;;;;;;18.97;28.57;100261.00;4175771;28;20094;-45
2021/04/29 00:25:02;;;;;;;0.80;0.70;;;;;;;19.02;28.65;100266.53;4175653;28;20398;-45
2021/04/29 00:27:02;;;;;;;0.75;0.65;;;;;;;19.00;28.54;100263.19;4174368;28;20029;-45
2021/04/29 00:29:03;;;;;;;1.55;0.80;;;;;;;18.93;28.65;100266.34;4175503;28;20052;-45
2021/04/29 00:31:04;;;;;;;0.90;0.90;;;;;;;18.93;28.71;100268.28;4175513;28;20140;-46
2021/04/29 00:33:05;;;;;;;1.38;0.85;;;;;;;18.91;28.81;100263.03;4175465;28;20067;-49
2021/04/29 00:35:06;;;;;;;0.70;0.70;;;;;;;18.91;28.75;100264.97;4176300;28;20115;-50
2021/04/29 00:37:06;;;;;;;1.23;1.13;;;;;;;18.94;28.83;100265.22;4174975;28;20029;-45
2021/04/29 00:39:07;;;;;;;1.02;0.95;;;;;;;18.85;28.83;100261.44;4176135;28;20029;-47
2021/04/29 00:41:07;;;;;;;1.10;1.10;;;;;;;18.91;28.76;100268.59;4170533;28;20037;-49
2021/04/29 00:43:12;;;;;;;0.80;0.80;;;;;;;18.96;28.65;100265.75;4174625;28;20487;-49
2021/04/29 00:45:12;;;;;;;0.80;0.80;;;;;;;18.85;28.68;100267.81;4175777;28;20033;-44
2021/04/29 00:47:13;;;;;;;0.70;0.60;;;;;;;18.92;28.88;100272.16;4176335;28;20059;-44
2021/04/29 00:49:16;;;;;;;1.00;0.90;;;;;;;18.81;28.83;100269.50;4175166;28;20032;-48
2021/04/29 00:51:18;;;;;;;1.05;0.95;;;;;;;18.81;28.78;100261.19;4172310;28;20032;-45
2021/04/29 00:53:18;;;;;;;1.58;1.00;;;;;;;18.70;28.78;100252.13;4174514;28;20039;-47
2021/04/29 00:55:19;;;;;;;0.75;0.65;;;;;;;18.77;29.06;100270.38;4175724;28;20032;-46
2021/04/29 00:57:19;;;;;;;1.05;0.77;;;;;;;18.84;28.62;100266.13;4174506;28;20040;-45
2021/04/29 00:59:20;;;;;;;0.70;0.70;;;;;;;18.70;28.92;100262.41;4175429;28;20041;-46
2021/04/29 01:01:21;;;;;;;1.05;0.95;;;;;;;18.71;28.93;100269.63;4172518;28;20033;-46
2021/04/29 01:03:38;;;;;;;3.33;0.80;;;;;;;18.72;28.94;100285.09;4175355;28;20025;-45
2021/04/29 01:05:51;;;;;;;0.80;0.80;;;;;;;18.63;28.75;100239.72;4176458;28;20488;-47
2021/04/29 01:08:12;;;;;;;0.73;0.73;;;;;;;18.77;28.85;100273.16;4174751;28;20052;-47
2021/04/29 01:10:19;;;;;;;0.57;0.52;;;;;;;18.66;29.01;100272.41;4172898;28;20064;-45
2021/04/29 01:12:26;;;;;;;0.40;0.40;;;;;;;18.67;28.81;100268.53;4172564;28;20036;-44
2021/04/29 01:14:28;;;;;;;0.50;0.50;;;;;;;18.71;28.66;100266.84;4175161;28;20041;-45
2021/04/29 01:16:30;;;;;;;0.68;0.68;;;;;;;18.70;28.85;100256.88;4175214;28;20032;-45
2021/04/29 01:18:31;;;;;;;0.55;0.50;;;;;;;18.60;28.83;100246.72;4175619;28;20503;-46
2021/04/29 01:20:44;;;;;;;0.95;0.80;;;;;;;18.65;28.83;100245.84;4174482;28;20040;-45
2021/04/29 01:22:54;;;;;;;0.60;0.60;;;;;;;18.65;28.71;100237.53;4174873;28;20731;-45
2021/04/29 01:25:11;;;;;;;0.60;0.60;;;;;;;18.59;29.09;100245.03;4172360;28;20017;-46
2021/04/29 01:27:13;;;;;;;0.60;0.60;;;;;;;18.65;28.87;100241.09;4175052;28;20098;-46
2021/04/29 01:29:20;;;;;;;0.73;0.70;;;;;;;18.50;29.01;100228.22;4175106;28;20060;-48
2021/04/29 01:31:24;;;;;;;0.60;0.60;;;;;;;18.48;28.96;100224.91;4171436;28;20029;-44
2021/04/29 01:33:25;;;;;;;1.08;0.50;;;;;;;18.58;28.74;100254.47;4173948;28;20561;-44
2021/04/29 01:35:26;;;;;;;0.60;0.60;;;;;;;18.63;28.92;100250.81;4166826;28;20033;-45
2021/04/29 01:37:27;;;;;;;0.50;0.50;;;;;;;18.60;28.84;100251.41;4174756;28;20106;-46
2021/04/29 01:39:28;;;;;;;0.88;0.68;;;;;;;18.65;28.88;100245.84;4175020;28;20123;-46
2021/04/29 01:41:29;;;;;;;0.70;0.70;;;;;;;18.59;28.95;100253.38;4167792;28;20142;-47
2021/04/29 01:43:31;;;;;;;0.60;0.55;;;;;;;18.53;28.94;100254.53;4173317;28;20120;-45
2021/04/29 01:45:32;;;;;;;0.93;0.70;;;;;;;18.53;28.97;100255.34;4168282;28;20029;-45
2021/04/29 01:47:34;;;;;;;0.93;0.70;;;;;;;18.64;28.88;100252.50;4175971;28;20033;-45
2021/04/29 01:49:35;;;;;;;0.60;0.60;;;;;;;18.59;28.90;100261.69;4174747;28;20400;-46
2021/04/29 01:51:37;;;;;;;0.98;0.60;;;;;;;18.55;28.91;100257.81;4173825;28;20035;-47
2021/04/29 01:53:38;;;;;;;0.60;0.60;;;;;;;18.53;28.91;100263.66;4174596;28;20090;-46
2021/04/29 01:55:39;;;;;;;1.45;0.80;;;;;;;18.53;28.82;100263.66;4175336;28;20064;-48
2021/04/29 01:57:39;;;;;;;0.70;0.60;;;;;;;18.56;28.81;100269.75;4174623;28;20119;-49
2021/04/29 01:59:40;;;;;;;0.57;0.50;;;;;;;18.56;28.88;100258.66;4174695;28;20050;-45
2021/04/29 02:01:42;;;;;;;0.70;0.65;;;;;;;18.48;28.86;100255.41;4172931;28;20039;-46
2021/04/29 02:03:43;;;;;;;0.80;0.80;;;;;;;18.48;28.86;100243.50;4169799;28;20025;-47
2021/04/29 02:05:43;;;;;;;0.60;0.60;;;;;;;18.39;28.94;100234.97;4174610;28;20036;-45
2021/04/29 02:07:44;;;;;;;0.70;0.70;;;;;;;18.43;28.96;100249.91;4174511;28;20033;-46
2021/04/29 02:09:44;;;;;;;0.57;0.50;;;;;;;18.47;28.88;100247.38;4175075;28;20029;-48
2021/04/29 02:11:57;;;;;;;0.50;0.50;;;;;;;18.45;28.92;100246.84;4174072;28;20041;-47
2021/04/29 02:13:59;;;;;;;0.57;0.57;;;;;;;18.45;29.14;100246.84;4177581;28;20028;-44
2021/04/29 02:16:10;;;;;;;0.75;0.70;;;;;;;18.39;28.99;100243.28;4177564;28;20112;-46
2021/04/29 02:18:11;;;;;;;;;;;;;;;18.39;28.93;100246.06;4178068;28;20115;-44
2021/04/29 02:20:14;;;;;;;0.55;0.55;;;;;;;18.38;28.94;100225.00;4177223;28;19940;-44
2021/04/29 02:22:17;;;;;;;0.60;0.60;;;;;;;18.42;28.98;100230.81;4176825;28;20037;-45
2021/04/29 02:24:19;;;;;;;0.55;0.55;;;;;;;18.45;28.79;100231.03;4177470;28;20041;-46
2021/04/29 02:26:20;;;;;;;0.50;0.50;;;;;;;18.44;28.81;100229.38;4178015;28;20498;-46
2021/04/29 02:28:21;;;;;;;0.63;0.63;;;;;;;18.40;28.83;100231.09;4176590;28;20033;-49
2021/04/29 02:30:22;;;;;;;1.10;0.68;;;;;;;18.37;28.87;100226.13;4177642;28;20392;-45
2021/04/29 02:32:22;;;;;;;0.60;0.60;;;;;;;;;;4172168;28;20032;-45
2021/04/29 02:34:23;;;;;;;0.85;0.80;;;;;;;18.29;29.12;100232.25;4176677;28;20029;-49
2021/04/29 02:36:23;;;;;;;1.17;0.60;;;;;;;18.28;29.03;100223.13;4177667;28;20029;-51
2021/04/29 02:38:25;;;;;;;0.75;0.40;;;;;;;18.29;29.10;100218.41;4177232;28;20099;-49
2021/04/29 02:40:27;;;;;;;1.00;0.57;;;;;;;18.31;28.90;100213.44;4176800;28;20025;-44
2021/04/29 02:42:28;;;;;;;1.05;0.63;;;;;;;18.31;28.74;100222.56;4175678;28;20025;-44
2021/04/29 02:44:29;;;;;;;1.27;0.68;;;;;;;18.28;29.09;100216.78;4177317;28;20040;-46
2021/04/29 02:46:30;;;;;;;0.57;0.57;;;;;;;18.31;28.90;100207.91;4176688;28;20025;-45
2021/04/29 02:48:31;;;;;;;0.55;0.52;;;;;;;18.23;29.02;100212.09;4176881;28;20044;-46
2021/04/29 02:50:31;;;;;;;0.32;0.30;;;;;;;18.19;28.91;100213.78;4177164;28;20044;-49
2021/04/29 02:52:32;;;;;;;0.82;0.60;;;;;;;18.25;28.99;100209.03;4177898;28;20037;-44
2021/04/29 02:54:32;;;;;;;0.68;0.60;;;;;;;18.26;28.94;100202.34;4176264;28;20063;-45
2021/04/29 02:56:37;;;;;;;0.60;0.60;;;;;;;18.07;28.85;100180.91;4176566;28;20415;-48
2021/04/29 02:58:45;;;;;;;0.60;0.60;;;;;;;18.22;28.98;100195.75;4175137;28;20368;-45
2021/04/29 03:00:46;;;;;;;0.88;0.60;;;;;;;18.25;28.78;100198.78;4175324;28;20037;-44
2021/04/29 03:02:47;;;;;;;0.50;0.50;;;;;;;18.25;28.78;100204.31;4177380;28;20079;-46
2021/04/29 03:04:48;;;;;;;0.40;0.40;;;;;;;18.21;28.96;100196.88;4175924;28;20029;-46
2021/04/29 03:06:48;;;;;;;0.50;0.50;;;;;;;18.16;29.06;100200.50;4177723;28;20033;-44
2021/04/29 03:08:50;;;;;;;0.75;0.40;;;;;;;18.16;28.79;100198.56;4175966;28;20116;-45
2021/04/29 03:10:51;;;;;;;0.40;0.40;;;;;;;18.16;29.00;100200.50;4175819;28;20025;-48
2021/04/29 03:12:51;;;;;;;0.50;0.50;;;;;;;17.97;29.06;100184.59;4172879;28;20617;-45
2021/04/29 03:14:52;;;;;;;0.60;0.60;;;;;;;18.09;28.91;100200.84;4176214;28;20029;-44
2021/04/29 03:16:52;;;;;;;0.68;0.55;;;;;;;18.12;29.00;100197.50;4176993;28;20089;-45
2021/04/29 03:18:52;;;;;;;0.68;0.43;;;;;;;18.10;29.11;100208.03;4177278;28;20078;-49
2021/04/29 03:20:53;;;;;;;0.55;0.55;;;;;;;18.10;28.95;100199.72;4175907;28;20072;-47
2021/04/29 03:22:53;;;;;;;0.30;0.30;;;;;;;18.13;29.05;100207.44;4176940;28;20056;-51
2021/04/29 03:24:54;;;;;;;0.45;0.40;;;;;;;18.03;29.12;100209.47;4177417;28;20056;-47
2021/04/29 03:26:55;;;;;;;0.60;0.38;;;;;;;18.06;28.91;100218.06;4177200;28;20033;-44
2021/04/29 03:28:55;;;;;;;0.52;0.52;;;;;;;18.09;29.02;100214.69;4175286;28;20036;-45
2021/04/29 03:30:56;;;;;;;0.63;0.63;;;;;;;18.07;29.01;100219.69;4176635;28;20056;-45
2021/04/29 03:32:57;;;;;;;0.60;0.60;;;;;;;18.01;29.17;100209.75;4176747;28;20041;-45
2021/04/29 03:34:58;;;;;;;0.57;0.57;;;;;;;18.07;29.05;100230.75;4175146;28;20033;-45
2021/04/29 03:36:58;;;;;;;0.88;0.63;;;;;;;18.07;29.03;100232.72;4173343;28;20468;-48
2021/04/29 03:38:59;;;;;;;0.50;0.50;;;;;;;18.05;29.05;100243.25;4176517;28;20506;-45
2021/04/29 03:40:59;;;;;;;0.73;0.65;;;;;;;17.94;29.12;100240.56;4176502;28;20100;-48
2021/04/29 03:42:59;;;;;;;0.40;0.40;;;;;;;17.97;29.15;100250.25;4176571;28;20428;-45
2021/04/29 03:45:00;;;;;;;0.40;0.40;;;;;;;17.96;29.14;100254.94;4176608;28;20021;-46
2021/04/29 03:47:00;;;;;;;0.55;0.40;;;;;;;17.92;29.21;100267.72;4177753;28;20033;-45
2021/04/29 03:49:01;;;;;;;0.52;0.50;;;;;;;17.93;29.00;100276.84;4174713;28;20835;-44
2021/04/29 03:51:01;;;;;;;0.90;0.90;;;;;;;17.97;29.06;100275.16;4176373;28;20037;-45
2021/04/29 03:53:02;;;;;;;0.50;0.50;;;;;;;17.95;29.07;100277.38;4175758;28;20475;-45
2021/04/29 03:55:03;;;;;;;0.65;0.50;;;;;;;17.89;29.17;100272.97;4176758;28;20056;-50
2021/04/29 03:57:04;;;;;;;0.63;0.63;;;;;;;17.93;28.98;100276.84;4177044;28;20037;-45
2021/04/29 03:59:05;;;;;;;0.40;0.40;;;;;;;17.84;29.29;100270.25;4177030;28;20426;-46
2021/04/29 04:01:05;;;;;;;0.50;0.50;;;;;;;17.71;29.19;100244.03;4174991;28;20060;-47
2021/04/29 04:03:06;;;;;;;0.50;0.50;;;;;;;17.82;29.19;100270.53;4176396;28;20380;-47
2021/04/29 04:05:07;;;;;;;0.60;0.60;;;;;;;17.81;29.17;100272.50;4176925;28;20171;-45
2021/04/29 04:07:07;;;;;;;0.68;0.68;;;;;;;17.77;29.20;100287.19;4176980;28;20568;-45
2021/04/29 04:09:08;;;;;;;0.60;0.60;;;;;;;17.80;29.17;100281.91;4175333;28;20037;-47
2021/04/29 04:11:08;;;;;;;0.30;0.30;;;;;;;17.80;29.20;100278.31;4176401;28;20387;-44
2021/04/29 04:13:22;;;;;;;0.47;0.47;;;;;;;17.87;29.19;100272.44;4176022;28;20063;-46
2021/04/29 04:15:22;;;;;;;0.80;0.80;;;;;;;17.85;28.97;100272.72;4176692;28;20143;-45
2021/04/29 04:17:22;;;;;;;0.73;0.73;;;;;;;17.85;28.92;100274.69;4176260;28;20052;-45
2021/04/29 04:19:23;;;;;;;0.52;0.52;;;;;;;17.82;29.12;100270.53;4175678;28;20039;-46
2021/04/29 04:21:24;;;;;;;0.50;0.50;;;;;;;17.81;29.08;100272.50;4176189;28;20062;-46
2021/04/29 04:23:25;;;;;;;0.32;0.32;;;;;;;17.81;29.15;100274.41;4176063;28;20029;-44
2021/04/29 04:25:25;;;;;;;0.30;0.30;;;;;;;17.73;29.25;100281.38;4176913;28;20071;-44
2021/04/29 04:27:26;;;;;;;0.52;0.52;;;;;;;17.67;29.18;100276.16;4176607;28;20032;-49
2021/04/29 04:29:26;;;;;;;0.60;0.60;;;;;;;17.77;29.14;100287.19;4175740;28;20066;-44
2021/04/29 04:31:27;;;;;;;0.35;0.35;;;;;;;17.79;29.08;100294.06;4175433;28;20036;-44
2021/04/29 04:33:27;;;;;;;0.55;0.55;;;;;;;17.78;29.03;100310.97;4175924;28;20044;-44
2021/04/29 04:35:27;;;;;;;0.40;0.38;;;;;;;17.68;29.37;100311.84;4175122;28;20044;-46
2021/04/29 04:37:28;;;;;;;0.52;0.52;;;;;;;17.71;29.15;100307.69;4176855;28;20033;-47
2021/04/29 04:39:29;;;;;;;0.55;0.45;;;;;;;17.70;29.34;100306.84;4175751;28;20577;-44
2021/04/29 04:41:29;;;;;;;0.50;0.50;;;;;;;17.69;29.11;100310.75;4175864;28;20025;-48
2021/04/29 04:43:30;;;;;;;0.43;0.40;;;;;;;17.69;29.23;100321.81;4170853;28;20475;-44
2021/04/29 04:45:30;;;;;;;0.40;0.40;;;;;;;17.68;29.25;100335.94;4175535;28;20025;-48
2021/04/29 04:47:31;;;;;;;0.93;0.68;;;;;;;17.68;29.11;100336.75;4175809;28;20041;-45
2021/04/29 04:49:31;;;;;;;0.55;0.55;;;;;;;17.74;28.90;100343.13;4175267;28;20033;-44
2021/04/29 04:51:32;;;;;;;0.50;0.50;;;;;;;17.68;29.22;100347.84;4175895;28;20631;-45
2021/04/29 04:53:32;;;;;;;0.57;0.57;;;;;;;17.68;29.19;100347.84;4171628;28;20117;-46
2021/04/29 04:55:42;;;;;;;0.45;0.45;;;;;;;17.60;29.15;100346.47;4174524;28;20045;-44
2021/04/29 04:57:42;;;;;;;0.57;0.57;;;;;;;17.63;29.24;100340.38;4174717;28;20083;-46
2021/04/29 04:59:43;;;;;;;0.50;0.50;;;;;;;17.56;29.21;100339.84;4175511;28;20040;-46
2021/04/29 05:01:43;;;;;;;0.50;0.50;;;;;;;17.58;29.22;100334.03;4174786;28;20064;-47
2021/04/29 05:03:44;;;;;;;0.50;0.50;;;;;;;17.65;29.11;100334.56;4176022;28;20400;-44
2021/04/29 05:05:45;;;;;;;0.50;0.50;;;;;;;17.67;29.10;100325.97;4175323;28;20029;-46
2021/04/29 05:07:45;;;;;;;0.50;0.50;;;;;;;17.55;29.29;100329.91;4175005;28;20087;-44
2021/04/29 05:09:45;;;;;;;0.50;0.50;;;;;;;17.62;29.04;100327.66;4176039;28;20056;-50
2021/04/29 05:11:46;;;;;;;0.52;0.52;;;;;;;17.60;29.13;100329.06;4175716;28;20040;-46
2021/04/29 05:13:47;;;;;;;0.40;0.40;;;;;;;17.61;28.82;100314.94;4173517;28;20040;-45
2021/04/29 05:15:47;;;;;;;0.63;0.63;;;;;;;17.62;28.61;100326.81;4176016;28;20040;-45
2021/04/29 05:17:50;;;;;;;0.40;0.40;;;;;;;17.32;29.37;100295.38;4175228;28;20650;-44
2021/04/29 05:19:51;;;;;;;0.40;0.40;;;;;;;17.39;29.01;100301.41;4175704;28;20402;-44
2021/04/29 05:21:51;;;;;;;0.52;0.40;;;;;;;17.36;29.36;100301.16;4175289;28;20033;-44
2021/04/29 05:23:52;;;;;;;0.40;0.40;;;;;;;17.52;29.24;100319.41;4175751;28;20041;-46
2021/04/29 05:25:52;;;;;;;0.52;0.40;;;;;;;17.57;28.97;100329.63;4175669;28;20097;-44
2021/04/29 05:27:58;;;;;;;0.60;0.40;;;;;;;17.56;29.07;100320.47;4175115;28;20052;-47
2021/04/29 05:29:58;;;;;;;0.50;0.50;;;;;;;17.48;29.23;100317.47;4175648;28;20049;-45
2021/04/29 05:31:59;;;;;;;0.50;0.50;;;;;;;17.45;29.21;100313.31;4175799;28;20037;-44
2021/04/29 05:33:59;;;;;;;0.40;0.40;;;;;;;17.48;29.07;100309.16;4168490;28;20041;-44
2021/04/29 05:36:00;;;;;;;0.60;0.60;;;;;;;17.49;29.11;100313.56;4174362;28;20044;-45
2021/04/29 05:38:00;;;;;;;0.38;0.38;;;;;;;17.56;28.88;100305.81;4174417;28;20713;-44
2021/04/29 05:40:00;;;;;;;0.47;0.38;;;;;;;17.39;29.20;100295.06;4174845;28;20132;-46
2021/04/29 05:42:01;;;;;;;0.40;0.40;;;;;;;17.33;29.08;100276.84;4170473;28;20036;-47
2021/04/29 05:44:01;;;;;;;0.38;0.38;;;;;;;17.42;29.20;100295.31;4173180;28;20075;-44
2021/04/29 05:46:03;;;;;;;0.55;0.55;;;;;;;17.44;29.21;100290.34;4175202;28;20025;-46
2021/04/29 05:48:04;;;;;;;0.60;0.60;;;;;;;17.38;29.15;100293.41;4178240;28;20029;-44
2021/04/29 05:50:05;;;;;;;0.50;0.50;;;;;;;17.45;29.25;100288.41;4177263;28;20043;-47
2021/04/29 05:52:05;;;;;;;0.43;0.40;;;;;;;17.48;28.99;100282.31;4178213;28;20066;-43
2021/04/29 05:54:06;;;;;;;0.68;0.55;;;;;;;17.46;29.08;100279.81;4177549;28;20036;-44
2021/04/29 05:56:06;;;;;;;0.50;0.50;;;;;;;17.41;29.14;100277.09;4178632;28;20033;-44
2021/04/29 05:58:07;;;;;;;0.43;0.43;;;;;;;17.38;29.21;100274.88;4178153;28;20087;-44
2021/04/29 06:00:08;;;;;;;0.50;0.50;;;;;;;17.33;29.18;100280.41;4176387;28;20037;-49
2021/04/29 06:02:09;;;;;;;0.40;0.40;;;;;;;17.33;29.23;100274.06;4177039;28;20037;-47
2021/04/29 06:04:09;;;;;;;0.52;0.52;;;;;;;17.40;29.09;100280.94;4176661;28;20025;-44
2021/04/29 06:06:10;;;;;;;0.52;0.52;;;;;;;17.31;29.23;100288.19;4178487;28;20065;-45
2021/04/29 06:08:10;;;;;;;0.35;0.35;;;;;;;17.36;29.13;100279.84;4178408;28;20048;-46
2021/04/29 06:10:11;;;;;;;0.73;0.60;;;;;;;17.35;29.14;100269.91;4176574;28;20029;-46
2021/04/29 06:12:11;;;;;;;0.50;0.50;;;;;;;17.36;29.16;100276.25;4177789;28;20179;-46
2021/04/29 06:14:12;;;;;;;0.70;0.47;;;;;;;17.38;29.07;100277.66;4176904;28;20037;-44
2021/04/29 06:16:14;;;;;;;0.50;0.50;;;;;;;17.29;29.30;100290.41;4177880;28;20396;-44
2021/04/29 06:18:14;;;;;;;0.60;0.60;;;;;;;17.26;29.27;100277.97;4176532;28;20036;-47
2021/04/29 06:20:16;;;;;;;0.50;0.47;;;;;;;17.24;29.16;100284.88;4177108;28;20098;-44
2021/04/29 06:22:17;;;;;;;0.30;0.30;;;;;;;17.36;29.05;100287.34;4178569;28;20037;-45
2021/04/29 06:24:17;;;;;;;0.60;0.60;;;;;;;17.36;29.04;100299.22;4178008;28;20056;-44
2021/04/29 06:26:18;;;;;;;0.70;0.70;;;;;;;17.32;28.83;100289.00;4178346;28;20040;-45
2021/04/29 06:28:18;;;;;;;0.32;0.32;;;;;;;17.25;29.08;100281.00;4178697;28;20041;-45
2021/04/29 06:30:19;;;;;;;0.50;0.50;;;;;;;17.22;29.35;100285.16;4176303;28;20486;-47
2021/04/29 06:32:19;;;;;;;0.40;0.40;;;;;;;17.20;29.26;100290.16;4177516;28;20032;-50
2021/04/29 06:34:19;;;;;;;0.60;0.50;;;;;;;17.20;29.23;100292.91;4176159;28;20748;-46
2021/04/29 06:36:20;;;;;;;0.57;0.57;;;;;;;17.20;29.20;100286.56;4174963;28;20041;-48
2021/04/29 06:38:21;;;;;;;0.32;0.32;;;;;;;17.26;29.13;100289.03;4177876;28;20029;-46
2021/04/29 06:40:21;;;;;;;0.40;0.40;;;;;;;17.18;29.20;100277.69;4176990;28;20028;-44
2021/04/29 06:42:22;;;;;;;0.40;0.40;;;;;;;17.24;29.13;100282.97;4177256;28;20514;-43
2021/04/29 06:44:23;;;;;;;0.57;0.50;;;;;;;17.18;29.18;100280.47;4176881;28;20029;-44
2021/04/29 06:46:23;;;;;;;0.43;0.43;;;;;;;17.26;28.99;100279.91;4176869;28;20387;-44
2021/04/29 06:48:23;;;;;;;0.50;0.50;;;;;;;17.02;29.27;100252.91;4177141;28;20033;-45
2021/04/29 06:50:24;;;;;;;0.43;0.40;;;;;;;17.15;29.35;100276.34;4175934;28;20388;-46
2021/04/29 06:52:24;;;;;;;0.98;0.80;;;;;;;17.18;29.20;100273.03;4177291;28;20036;-46
2021/04/29 06:54:25;;;;;;;0.47;0.47;;;;;;;17.18;29.30;100277.69;4177412;28;20387;-45
2021/04/29 06:56:25;;;;;;;0.65;0.50;;;;;;;17.15;29.06;100275.50;4177414;28;20116;-44
2021/04/29 06:58:28;;;;;;;0.80;0.77;;;;;;;17.05;29.14;100281.91;4175037;28;20048;-45
2021/04/29 07:00:28;;;;;;;0.40;0.40;;;;;;;17.18;29.24;100277.69;4176597;28;20104;-44
2021/04/29 07:02:29;;;;;;;0.55;0.52;;;;;;;17.10;29.24;100268.91;4177282;28;20058;-48
2021/04/29 07:04:29;;;;;;;0.75;0.75;;;;;;;17.05;29.20;100268.91;4177314;28;20052;-46
2021/04/29 07:06:30;;;;;;;0.90;0.90;;;;;;;17.11;29.32;100273.28;4177477;28;20036;-45
2021/04/29 07:08:31;;;;;;;0.50;0.50;;;;;;;17.03;29.32;100253.72;4176640;28;20037;-45
2021/04/29 07:10:31;;;;;;;0.63;0.63;;;;;;;17.08;29.07;100261.97;4176054;28;20048;-45
2021/04/29 07:12:31;;;;;;;0.60;0.55;;;;;;;17.08;29.13;100265.56;4177453;28;20494;-50
2021/04/29 07:14:32;;;;;;;0.90;0.90;;;;;;;17.02;29.28;100258.41;4176298;28;20064;-48
2021/04/29 07:16:32;;;;;;;0.40;0.40;;;;;;;17.02;29.26;100263.94;4176602;28;20139;-44
2021/04/29 07:18:33;;;;;;;0.55;0.55;;;;;;;16.83;29.31;100232.47;4177384;28;20029;-46
2021/04/29 07:20:37;;;;;;;0.52;0.52;;;;;;;17.08;29.22;100261.97;4175123;28;20810;-49
2021/04/29 07:22:37;;;;;;;1.38;0.50;;;;;;;17.10;29.18;100260.59;4175644;28;20033;-47
2021/04/29 07:24:38;;;;;;;0.88;0.60;;;;;;;17.06;29.22;100256.72;4173681;28;20045;-43
2021/04/29 07:26:38;;;;;;;0.30;0.30;;;;;;;16.97;29.31;100257.59;4175462;28;20037;-46
2021/04/29 07:28:38;;;;;;;0.35;0.35;;;;;;;17.06;29.14;100261.44;4175897;28;20040;-45
2021/04/29 07:30:40;;;;;;;0.60;0.60;;;;;;;17.01;29.21;100248.47;4170348;28;20033;-49
2021/04/29 07:32:40;;;;;;;0.50;0.50;;;;;;;17.05;29.09;100251.47;4177015;28;20480;-45
2021/04/29 07:34:40;;;;;;;0.50;0.50;;;;;;;17.07;29.05;100260.34;4174537;28;20044;-44
2021/04/29 07:36:41;;;;;;;0.60;0.60;;;;;;;16.96;29.25;100256.78;4176448;28;20040;-45
2021/04/29 07:38:41;;;;;;;0.70;0.70;;;;;;;16.90;29.17;100250.44;4177045;28;20134;-45
2021/04/29 07:40:42;;;;;;;0.60;0.60;;;;;;;16.97;29.33;100250.13;4176114;28;20048;-48
2021/04/29 07:42:43;;;;;;;0.70;0.70;;;;;;;16.93;29.30;100255.41;4175347;28;20529;-44
2021/04/29 07:44:43;;;;;;;0.60;0.60;;;;;;;16.92;29.30;100252.91;4175710;28;20151;-45
2021/04/29 07:46:43;;;;;;;0.70;0.70;;;;;;;16.96;29.30;100270.59;4175247;28;20024;-43
2021/04/29 07:48:44;;;;;;;0.63;0.63;;;;;;;16.91;29.11;100256.78;4175856;28;20029;-50
2021/04/29 07:50:44;;;;;;;0.70;0.70;;;;;;;16.97;29.19;100269.47;4176252;28;20037;-48
2021/04/29 07:52:45;;;;;;;0.80;0.80;;;;;;;16.91;29.34;100267.81;4176686;28;20067;-44
2021/04/29 07:54:46;;;;;;;0.82;0.70;;;;;;;17.00;29.11;100274.44;4177575;28;20021;-50
2021/04/29 07:56:46;;;;;;;0.68;0.68;;;;;;;16.91;28.97;100267.81;4176429;28;20095;-44
2021/04/29 07:58:46;;;;;;;0.63;0.50;;;;;;;16.87;29.29;100275.03;4176107;28;20036;-46
2021/04/29 08:00:47;;;;;;;0.60;0.60;;;;;;;16.86;29.28;100276.16;4175906;28;20029;-44
2021/04/29 08:02:48;;;;;;;0.80;0.80;;;;;;;16.92;29.19;100286.09;4176397;28;20043;-46
2021/04/29 08:04:48;;;;;;;0.70;0.70;;;;;;;16.81;29.15;100279.75;4174818;28;20636;-45
2021/04/29 08:06:49;;;;;;;0.57;0.57;;;;;;;16.80;29.38;100288.31;4175762;28;20391;-49
2021/04/29 08:08:49;;;;;;;0.73;0.60;;;;;;;16.74;29.51;100281.94;4175043;28;20037;-48
2021/04/29 08:10:49;;;;;;;0.45;0.38;;;;;;;16.80;29.50;100280.03;4173317;28;20037;-47
2021/04/29 08:12:50;;;;;;;0.60;0.60;;;;;;;16.62;29.55;100296.03;4177005;28;20037;-50
2021/04/29 08:14:52;;;;;;;0.57;0.57;;;;;;;16.65;29.63;100281.72;4174013;28;20037;-44
2021/04/29 08:16:53;;;;;;;0.88;0.82;;;;;;;16.55;29.68;100292.72;4174449;28;20066;-47
2021/04/29 08:18:53;;;;;;;0.50;0.50;;;;;;;16.75;29.56;100297.44;4175872;28;20064;-46
2021/04/29 08:20:54;;;;;;;0.85;0.85;;;;;;;16.75;29.42;100292.72;4174343;28;20041;-45
2021/04/29 08:22:54;;;;;;;2.05;0.60;;;;;;;16.71;29.40;100296.31;4176334;28;20056;-45
2021/04/29 08:24:56;;;;;;;0.80;0.77;;;;;;;16.67;29.76;100307.13;4174504;28;20033;-45
2021/04/29 08:26:57;;;;;;;0.55;0.55;;;;;;;16.73;29.44;100310.72;4174927;28;20028;-43
2021/04/29 08:28:57;;;;;;;1.13;0.93;;;;;;;16.73;29.63;100316.25;4174876;28;20056;-46
2021/04/29 08:30:58;;;;;;;0.63;0.50;;;;;;;16.73;29.41;100316.25;4173287;28;20032;-47
2021/04/29 08:33:00;;;;;;;0.98;0.70;;;;;;;16.65;29.43;100328.69;4173728;28;20087;-46
2021/04/29 08:35:00;;;;;;;0.70;0.45;;;;;;;16.71;29.35;100327.56;4173724;28;20545;-45
2021/04/29 08:37:01;;;;;;;1.00;1.00;;;;;;;16.71;29.36;100323.97;4173642;28;20037;-44
2021/04/29 08:39:04;;;;;;;0.98;0.95;;;;;;;16.68;29.42;100327.28;4171504;28;20043;-47
2021/04/29 08:41:04;;;;;;;0.90;0.68;;;;;;;16.61;29.57;100327.53;4173183;28;20095;-45
2021/04/29 08:43:05;;;;;;;0.70;0.70;;;;;;;16.57;29.51;100335.56;4175611;28;20033;-44
2021/04/29 08:45:06;;;;;;;0.55;0.55;;;;;;;16.52;29.28;100313.44;4176317;28;20053;-47
2021/04/29 08:47:06;;;;;;;0.65;0.65;;;;;;;16.63;29.59;100339.13;4174845;28;20044;-44
2021/04/29 08:49:07;;;;;;;0.60;0.60;;;;;;;16.73;29.41;100343.88;4175499;28;20037;-45
2021/04/29 08:51:08;;;;;;;0.70;0.70;;;;;;;16.72;29.47;100353.28;4174947;28;20143;-43
2021/04/29 08:53:09;;;;;;;0.50;0.50;;;;;;;16.64;29.38;100349.09;4173919;28;20052;-44
2021/04/29 08:55:18;;;;;;;0.77;0.77;;;;;;;16.65;30.18;100336.13;4167625;28;20042;-45
2021/04/29 08:57:18;;;;;;;3.60;1.00;;;;;;;16.72;30.59;100348.56;4171667;28;20486;-47
2021/04/29 08:59:19;;;;;;;3.08;0.95;;;;;;;16.75;30.77;100353.53;4175114;28;20029;-47
2021/04/29 09:01:19;;;;;;;1.20;0.88;;;;;;;16.80;30.94;100349.94;4174765;28;20036;-46
2021/04/29 09:03:28;;;;;;;2.33;1.15;;;;;;;16.72;31.24;100343.03;4174959;28;20060;-43
2021/04/29 09:05:32;;;;;;;4.88;0.70;;;;;;;16.80;31.45;100360.19;4174306;28;20090;-45
2021/04/29 09:07:32;;;;;;;5.32;0.95;;;;;;;16.80;31.44;100357.41;4173924;28;20031;-43
2021/04/29 09:09:39;;;;;;;7.00;0.95;;;;;;;16.86;31.58;100359.06;4175282;28;20446;-45
2021/04/29 09:11:48;;;;;;;4.68;1.35;;;;;;;16.80;31.55;100358.22;4173550;28;20055;-43
2021/04/29 09:14:05;;;;;;;4.85;0.93;;;;;;;16.88;31.48;100362.38;4176023;28;20041;-47
2021/04/29 09:16:10;;;;;;;1.88;0.98;;;;;;;16.98;31.74;100369.84;4174280;28;20066;-45
2021/04/29 09:18:16;;;;;;;1.40;0.75;;;;;;;16.95;31.85;100364.88;4173349;28;20044;-44
2021/04/29 09:20:21;;;;;;;6.07;0.75;;;;;;;16.96;31.94;100370.13;4173683;28;20112;-46
2021/04/29 09:22:22;;;;;;;4.78;0.90;;;;;;;16.97;31.90;100369.00;4172562;28;20032;-46
2021/04/29 09:24:37;;;;;;;1.48;0.80;;;;;;;17.02;31.86;100369.03;4175182;28;20029;-45
2021/04/29 09:26:37;;;;;;;1.35;0.82;;;;;;;16.98;32.07;100373.44;4173266;28;20035;-43